Time;durP1;ratioP1;P1;durP2;ratioP2;P2;SDS_P1;SDS_P2;PMS_P1;PMS_P2;Temp;Humidity;BMP_temperature;BMP_pressure;BME280_temperature;BME280_humidity;BME280_pressure;Samples;Min_cycle;Max_cycle;Signal;HPM_P1;HPM_P2
2023/02/18 00:02:03;;;;;;;21.27;12.67;;;;;10.60;101878.00;;;;10042501;29;20209;-78
2023/02/18 00:07:05;;;;;;;19.87;12.10;;;;;10.60;101871.00;;;;10027162;29;20209;-77
2023/02/18 00:12:07;;;;;;;16.07;10.13;;;;;10.60;101852.00;;;;10027852;29;20197;-79
2023/02/18 00:17:09;;;;;;;18.30;11.07;;;;;10.60;101854.00;;;;10011904;29;20254;-78
2023/02/18 00:22:11;;;;;;;20.13;10.67;;;;;10.60;101849.00;;;;10012078;29;20223;-77
2023/02/18 00:27:13;;;;;;;22.37;11.03;;;;;10.60;101837.00;;;;10018823;29;20225;-77
2023/02/18 00:32:15;;;;;;;20.93;11.57;;;;;10.60;101820.00;;;;10004771;29;20220;-78
2023/02/18 00:37:17;;;;;;;15.90;9.17;;;;;10.60;101831.00;;;;9989221;29;20786;-78
2023/02/18 00:42:19;;;;;;;19.67;9.67;;;;;10.60;101824.00;;;;10003551;29;20312;-77
2023/02/18 00:47:21;;;;;;;17.30;9.57;;;;;10.60;101818.00;;;;10003874;29;20250;-78
2023/02/18 00:52:23;;;;;;;13.83;8.13;;;;;10.60;101816.00;;;;10003916;29;20258;-78
2023/02/18 00:57:25;;;;;;;14.90;8.53;;;;;10.60;101802.00;;;;9998245;29;20208;-78
2023/02/18 01:02:27;;;;;;;13.37;7.40;;;;;10.50;101786.00;;;;10023404;29;20220;-78
2023/02/18 01:07:29;;;;;;;11.27;8.07;;;;;10.50;101782.00;;;;10064063;29;20239;-78
2023/02/18 01:12:31;;;;;;;15.10;7.40;;;;;10.50;101781.00;;;;10052942;29;20729;-78
2023/02/18 01:17:33;;;;;;;11.10;6.17;;;;;10.50;101778.00;;;;10035354;29;20200;-79
2023/02/18 01:22:39;;;;;;;10.87;6.07;;;;;10.50;101769.00;;;;10027056;29;20237;-78
2023/02/18 01:27:42;;;;;;;12.10;5.60;;;;;10.50;101776.00;;;;10025511;29;20278;-78
2023/02/18 01:32:44;;;;;;;8.63;5.07;;;;;10.40;101776.00;;;;10031332;29;20194;-78
2023/02/18 01:37:47;;;;;;;6.30;4.00;;;;;10.40;101767.00;;;;10026661;29;20186;-78
2023/02/18 01:42:49;;;;;;;5.07;3.70;;;;;10.30;101764.00;;;;10026787;29;20217;-79
2023/02/18 01:47:51;;;;;;;5.17;3.10;;;;;10.20;101755.00;;;;10025970;29;20243;-79
2023/02/18 01:52:53;;;;;;;4.07;2.60;;;;;10.20;101762.00;;;;10035466;29;20239;-78
2023/02/18 01:57:55;;;;;;;2.63;2.00;;;;;10.20;101758.00;;;;10016638;29;20228;-78
2023/02/18 02:02:57;;;;;;;4.10;2.50;;;;;10.10;101750.00;;;;10015375;29;20232;-77
2023/02/18 02:08:00;;;;;;;2.87;2.40;;;;;10.10;101749.00;;;;9990471;29;20210;-78
2023/02/18 02:13:18;;;;;;;3.20;2.17;;;;;10.10;101735.00;;;;9975621;29;20285;-78
2023/02/18 02:18:33;;;;;;;2.23;1.53;;;;;10.10;101734.00;;;;10038757;29;20668;-78
2023/02/18 02:23:57;;;;;;;2.23;1.93;;;;;10.10;101727.00;;;;10027210;29;20221;-78
2023/02/18 02:29:34;;;;;;;3.83;2.37;;;;;10.10;101722.00;;;;10027319;29;20240;-77
2023/02/18 02:35:05;;;;;;;2.87;2.30;;;;;10.10;101717.00;;;;10010904;29;20224;-77
2023/02/18 02:40:13;;;;;;;3.90;2.60;;;;;10.10;101713.00;;;;10004023;29;20233;-77
2023/02/18 02:45:30;;;;;;;2.47;2.17;;;;;10.10;101706.00;;;;9988612;29;20210;-77
2023/02/18 02:50:38;;;;;;;3.70;2.33;;;;;10.10;101692.00;;;;10036078;29;20201;-78
2023/02/18 02:55:40;;;;;;;2.73;1.90;;;;;10.10;101698.00;;;;10010828;29;20247;-77
2023/02/18 03:01:05;;;;;;;1.80;1.57;;;;;10.00;101693.00;;;;10055884;29;20242;-77
2023/02/18 03:06:19;;;;;;;1.73;1.50;;;;;10.00;101692.00;;;;10033643;29;20197;-77
2023/02/18 03:11:22;;;;;;;1.60;1.30;;;;;10.00;101701.00;;;;10003413;29;20209;-77
2023/02/18 03:16:42;;;;;;;1.40;1.30;;;;;10.00;101690.00;;;;10017340;29;20201;-78
2023/02/18 03:21:54;;;;;;;1.40;1.30;;;;;10.00;101678.00;;;;10025301;29;20209;-77
2023/02/18 03:27:12;;;;;;;2.83;1.20;;;;;10.00;101669.00;;;;10039810;29;20220;-76
2023/02/18 03:32:17;;;;;;;2.07;1.60;;;;;10.00;101645.00;;;;10025057;29;20224;-77
2023/02/18 03:37:20;;;;;;;0.77;0.77;;;;;10.00;101653.00;;;;10038213;29;20223;-77
2023/02/18 03:42:27;;;;;;;2.20;1.00;;;;;9.90;101656.00;;;;10062331;29;20303;-77
2023/02/18 03:47:29;;;;;;;1.50;1.20;;;;;9.90;101646.00;;;;10062364;29;20208;-77
2023/02/18 03:52:31;;;;;;;1.63;1.30;;;;;9.90;101641.00;;;;10047946;29;20648;-77
2023/02/18 03:57:33;;;;;;;1.50;1.20;;;;;9.90;101636.00;;;;10045228;29;20243;-78
2023/02/18 04:02:35;;;;;;;1.70;1.40;;;;;9.90;101642.00;;;;10042303;29;20763;-77
2023/02/18 04:07:37;;;;;;;1.97;1.30;;;;;9.90;101622.00;;;;10040968;29;20204;-77
2023/02/18 04:12:39;;;;;;;1.90;1.60;;;;;9.90;101622.00;;;;10023450;29;20569;-77
2023/02/18 04:17:41;;;;;;;1.37;1.20;;;;;9.90;101616.00;;;;9998151;29;20754;-78
2023/02/18 04:22:43;;;;;;;2.00;1.13;;;;;9.90;101604.00;;;;9975107;29;20216;-77
2023/02/18 04:27:45;;;;;;;1.70;1.40;;;;;9.80;101600.00;;;;10057646;29;20810;-77
2023/02/18 04:32:47;;;;;;;1.80;1.30;;;;;9.80;101609.00;;;;10010819;29;20585;-77
2023/02/18 04:37:49;;;;;;;2.07;1.37;;;;;9.80;101604.00;;;;10000222;29;20190;-77
2023/02/18 04:42:51;;;;;;;1.70;1.60;;;;;9.80;101613.00;;;;9984499;29;20302;-77
2023/02/18 04:47:54;;;;;;;1.87;1.67;;;;;9.80;101613.00;;;;9984154;29;20448;-78
2023/02/18 04:52:56;;;;;;;1.93;1.50;;;;;9.80;101616.00;;;;10003899;29;20200;-77
2023/02/18 04:57:58;;;;;;;2.33;1.87;;;;;9.80;101628.00;;;;10018954;29;20672;-77
2023/02/18 05:02:59;;;;;;;2.63;1.60;;;;;9.80;101624.00;;;;10022114;29;20265;-77
2023/02/18 05:08:02;;;;;;;2.33;1.80;;;;;9.80;101630.00;;;;10053042;29;20257;-77
2023/02/18 05:13:04;;;;;;;2.73;1.70;;;;;9.70;101629.00;;;;10006555;29;20312;-77
2023/02/18 05:18:06;;;;;;;1.90;1.67;;;;;9.80;101625.00;;;;10052125;29;20197;-77
2023/02/18 05:23:08;;;;;;;1.97;1.63;;;;;9.70;101614.00;;;;10057903;29;20221;-77
2023/02/18 05:28:10;;;;;;;2.33;1.33;;;;;9.70;101605.00;;;;10043407;29;20724;-77
2023/02/18 05:33:12;;;;;;;1.40;1.20;;;;;9.70;101607.00;;;;10035716;29;20189;-78
2023/02/18 05:38:14;;;;;;;2.00;1.43;;;;;9.70;101586.00;;;;10028910;29;20282;-77
2023/02/18 05:43:16;;;;;;;2.10;1.50;;;;;9.70;101577.00;;;;10028650;29;20240;-77
2023/02/18 05:48:18;;;;;;;2.57;1.07;;;;;9.60;101582.00;;;;10012840;29;20208;-77
2023/02/18 05:53:20;;;;;;;4.33;1.83;;;;;9.50;101574.00;;;;10029493;29;20276;-77
2023/02/18 05:58:22;;;;;;;5.07;1.93;;;;;9.50;101600.00;;;;10053714;29;20301;-77
2023/02/18 06:03:24;;;;;;;5.50;1.73;;;;;9.40;101577.00;;;;10066015;29;20235;-78
2023/02/18 06:08:26;;;;;;;6.17;2.47;;;;;9.40;101573.00;;;;10066558;29;20192;-77
2023/02/18 06:13:28;;;;;;;8.40;2.23;;;;;9.30;101577.00;;;;10065357;29;20200;-77
2023/02/18 06:18:30;;;;;;;12.27;2.57;;;;;9.30;101566.00;;;;10054426;29;20205;-76
2023/02/18 06:23:32;;;;;;;7.70;2.03;;;;;9.30;101571.00;;;;10042539;29;20236;-78
2023/02/18 06:28:34;;;;;;;9.77;2.03;;;;;9.30;101562.00;;;;10027362;29;20212;-77
2023/02/18 06:33:36;;;;;;;11.17;2.60;;;;;9.30;101564.00;;;;10011274;29;20249;-78
2023/02/18 06:38:40;;;;;;;10.33;2.57;;;;;9.30;101586.00;;;;10011188;29;20212;-77
2023/02/18 06:43:42;;;;;;;13.77;2.97;;;;;9.30;101570.00;;;;10011707;29;20225;-78
2023/02/18 06:48:44;;;;;;;9.33;2.50;;;;;9.30;101567.00;;;;10056644;29;20292;-77
2023/02/18 06:53:46;;;;;;;15.17;2.57;;;;;9.40;101549.00;;;;10028705;29;20193;-77
2023/02/18 06:58:48;;;;;;;5.63;2.03;;;;;9.40;101561.00;;;;9983922;29;20209;-77
2023/02/18 07:03:50;;;;;;;12.83;3.33;;;;;9.40;101561.00;;;;10048163;29;20231;-78
2023/02/18 07:08:51;;;;;;;8.87;2.47;;;;;9.40;101552.00;;;;10078054;29;20204;-77
2023/02/18 07:13:53;;;;;;;9.53;1.90;;;;;9.50;101548.00;;;;10094281;29;20240;-78
2023/02/18 07:18:55;;;;;;;8.63;2.17;;;;;9.50;101564.00;;;;10063638;29;20204;-78
2023/02/18 07:23:57;;;;;;;8.50;1.97;;;;;9.60;101548.00;;;;10033728;29;20260;-78
2023/02/18 07:28:59;;;;;;;16.23;2.80;;;;;9.60;101563.00;;;;10039152;29;20219;-78
2023/02/18 07:34:01;;;;;;;11.27;3.33;;;;;9.60;101562.00;;;;10025696;29;20645;-77
2023/02/18 07:39:03;;;;;;;11.27;3.37;;;;;9.80;101568.00;;;;10008994;29;20208;-77
2023/02/18 07:44:05;;;;;;;12.83;2.97;;;;;9.80;101576.00;;;;10001057;29;20218;-77
2023/02/18 07:49:08;;;;;;;11.10;3.20;;;;;9.90;101567.00;;;;10001095;29;20642;-77
2023/02/18 07:54:10;;;;;;;13.47;3.17;;;;;10.10;101572.00;;;;10029360;29;20211;-77
2023/02/18 07:59:13;;;;;;;15.77;3.47;;;;;10.10;101579.00;;;;10019136;29;20210;-78
2023/02/18 08:04:15;;;;;;;10.60;3.27;;;;;10.20;101574.00;;;;10061281;29;20219;-77
2023/02/18 08:09:17;;;;;;;11.10;3.20;;;;;10.40;101582.00;;;;10047315;29;20227;-78
2023/02/18 08:14:19;;;;;;;12.50;4.50;;;;;10.40;101591.00;;;;10046195;29;20188;-77
2023/02/18 08:19:21;;;;;;;7.13;2.30;;;;;10.40;101596.00;;;;10030694;29;20196;-77
2023/02/18 08:24:24;;;;;;;15.87;2.97;;;;;10.40;101593.00;;;;10061464;29;20219;-77
2023/02/18 08:29:26;;;;;;;6.07;2.03;;;;;10.60;101589.00;;;;10014324;29;20612;-78
2023/02/18 08:34:28;;;;;;;13.57;2.73;;;;;10.80;101592.00;;;;9999855;29;20423;-78
2023/02/18 08:39:37;;;;;;;10.40;3.53;;;;;11.00;101592.00;;;;10000099;29;20300;-77
2023/02/18 08:44:40;;;;;;;4.90;1.80;;;;;11.20;101584.00;;;;9984797;29;20204;-79
2023/02/18 08:49:43;;;;;;;13.00;2.37;;;;;11.40;101590.00;;;;9999516;29;20201;-78
2023/02/18 08:54:45;;;;;;;9.77;2.07;;;;;11.40;101572.00;;;;9985327;29;20255;-78
2023/02/18 08:59:47;;;;;;;8.33;2.27;;;;;11.50;101573.00;;;;10044619;29;20249;-78
2023/02/18 09:04:49;;;;;;;7.77;2.73;;;;;11.80;101559.00;;;;10068844;29;20674;-79
2023/02/18 09:09:51;;;;;;;9.10;2.50;;;;;12.00;101561.00;;;;10051767;29;20727;-77
2023/02/18 09:14:53;;;;;;;9.80;2.10;;;;;11.80;101578.00;;;;10050150;29;20284;-77
2023/02/18 09:19:55;;;;;;;2.83;1.10;;;;;11.70;101580.00;;;;10014720;29;20213;-77
2023/02/18 09:24:57;;;;;;;6.33;1.70;;;;;11.60;101573.00;;;;10014674;29;20209;-78
2023/02/18 09:29:59;;;;;;;4.60;1.60;;;;;11.70;101582.00;;;;10006371;29;20333;-77
2023/02/18 09:35:03;;;;;;;4.87;1.60;;;;;11.70;101581.00;;;;9980010;29;20206;-78
2023/02/18 09:40:06;;;;;;;5.33;1.53;;;;;11.80;101581.00;;;;10005941;29;20773;-78
2023/02/18 09:45:12;;;;;;;3.00;1.10;;;;;12.00;101575.00;;;;9990468;29;20202;-78
2023/02/18 09:50:22;;;;;;;5.37;1.60;;;;;12.50;101583.00;;;;10004984;29;20198;-78
2023/02/18 09:55:38;;;;;;;4.20;1.40;;;;;12.30;101590.00;;;;9991045;29;20189;-77
2023/02/18 10:00:51;;;;;;;4.30;1.20;;;;;12.20;101590.00;;;;10043493;29;20236;-78
2023/02/18 10:06:10;;;;;;;5.23;1.83;;;;;12.20;101594.00;;;;10012634;29;20197;-77
2023/02/18 10:11:23;;;;;;;8.77;1.87;;;;;12.20;101590.00;;;;10028134;29;20196;-77
2023/02/18 10:16:26;;;;;;;8.37;2.10;;;;;12.10;101599.00;;;;10012527;29;20240;-78
2023/02/18 10:21:34;;;;;;;7.00;1.53;;;;;12.10;101603.00;;;;10027565;29;20303;-77
2023/02/18 10:26:37;;;;;;;7.50;2.00;;;;;12.00;101606.00;;;;10042551;29;20224;-77
2023/02/18 10:31:45;;;;;;;8.07;1.60;;;;;12.00;101605.00;;;;10027371;29;20257;-79
2023/02/18 10:36:54;;;;;;;9.87;5.40;;;;;12.10;101602.00;;;;10034906;29;20206;-77
2023/02/18 10:41:58;;;;;;;5.90;1.70;;;;;12.10;101608.00;;;;10065159;29;20248;-78
2023/02/18 10:47:18;;;;;;;9.67;1.60;;;;;12.20;101605.00;;;;10049274;29;20295;-78
2023/02/18 10:52:21;;;;;;;9.30;1.60;;;;;12.30;101608.00;;;;10034369;29;20259;-79
2023/02/18 10:57:24;;;;;;;5.50;1.60;;;;;12.40;101608.00;;;;10009897;29;20209;-78
2023/02/18 11:02:31;;;;;;;6.93;2.33;;;;;12.40;101618.00;;;;10041215;29;20565;-78
2023/02/18 11:07:36;;;;;;;7.03;2.13;;;;;12.30;101616.00;;;;10025534;29;20197;-77
2023/02/18 11:12:49;;;;;;;7.90;2.07;;;;;12.30;101615.00;;;;10041114;29;20272;-77
2023/02/18 11:17:54;;;;;;;6.53;1.70;;;;;12.20;101622.00;;;;10056161;29;20219;-77
2023/02/18 11:22:58;;;;;;;7.40;1.37;;;;;12.30;101621.00;;;;10076248;29;20212;-77
2023/02/18 11:28:02;;;;;;;4.97;1.80;;;;;12.20;101617.00;;;;10025156;29;20308;-77
2023/02/18 11:33:23;;;;;;;6.93;1.70;;;;;12.20;101619.00;;;;10026166;29;20200;-78
2023/02/18 11:38:40;;;;;;;7.00;1.83;;;;;12.30;101619.00;;;;10024999;29;20214;-77
2023/02/18 11:43:47;;;;;;;14.13;3.07;;;;;12.30;101627.00;;;;10026059;29;20248;-77
2023/02/18 11:48:50;;;;;;;4.77;1.57;;;;;12.40;101623.00;;;;10009809;29;20220;-77
2023/02/18 11:54:19;;;;;;;6.80;1.77;;;;;12.40;101633.00;;;;10050293;29;20275;-78
2023/02/18 11:59:21;;;;;;;6.13;1.57;;;;;12.30;101615.00;;;;10015563;29;20258;-77
2023/02/18 12:04:32;;;;;;;6.90;1.90;;;;;12.30;101613.00;;;;10021047;29;20224;-78
2023/02/18 12:09:38;;;;;;;9.80;2.97;;;;;12.30;101605.00;;;;10037976;29;20205;-78
2023/02/18 12:14:40;;;;;;;9.40;1.77;;;;;12.30;101627.00;;;;10039133;29;20196;-78
2023/02/18 12:20:19;;;;;;;6.40;2.10;;;;;12.30;101621.00;;;;10008846;29;20201;-77
2023/02/18 12:25:32;;;;;;;6.73;2.37;;;;;12.30;101621.00;;;;10023003;29;20216;-77
2023/02/18 12:31:05;;;;;;;11.80;3.27;;;;;12.50;101618.00;;;;10022252;29;20197;-77
2023/02/18 12:36:52;;;;;;;8.33;2.03;;;;;12.40;101617.00;;;;10007876;29;20295;-77
2023/02/18 12:42:11;;;;;;;8.10;2.07;;;;;12.30;101616.00;;;;10007671;29;20344;-79
2023/02/18 12:47:25;;;;;;;6.73;1.83;;;;;12.30;101621.00;;;;10022658;29;20240;-77
2023/02/18 12:52:43;;;;;;;9.87;1.73;;;;;12.20;101618.00;;;;10004329;29;20580;-78
2023/02/18 12:58:28;;;;;;;7.87;1.80;;;;;12.20;101630.00;;;;10027022;29;20263;-77
2023/02/18 13:03:52;;;;;;;5.27;1.87;;;;;12.10;101635.00;;;;9990222;29;20656;-77
2023/02/18 13:08:56;;;;;;;7.50;3.77;;;;;12.00;101627.00;;;;10022708;29;20232;-78
2023/02/18 13:13:58;;;;;;;8.87;2.40;;;;;11.70;101643.00;;;;9999139;29;20196;-78
2023/02/18 13:19:21;;;;;;;7.87;2.33;;;;;11.50;101634.00;;;;10035460;29;20200;-77
2023/02/18 13:24:31;;;;;;;7.77;2.50;;;;;11.50;101631.00;;;;10038030;29;20281;-77
2023/02/18 13:29:49;;;;;;;4.43;2.00;;;;;11.40;101626.00;;;;10021574;29;20216;-77
2023/02/18 13:35:19;;;;;;;8.80;2.10;;;;;11.40;101621.00;;;;9983922;29;20634;-78
2023/02/18 13:40:28;;;;;;;7.03;2.37;;;;;11.60;101617.00;;;;10028800;29;20224;-78
2023/02/18 13:45:32;;;;;;;9.43;3.17;;;;;11.70;101616.00;;;;10047866;29;20451;-78
2023/02/18 13:50:42;;;;;;;5.87;2.60;;;;;11.60;101609.00;;;;10064114;29;20238;-77
2023/02/18 13:56:02;;;;;;;7.87;2.60;;;;;11.50;101612.00;;;;9993257;29;20204;-77
2023/02/18 14:01:14;;;;;;;7.00;2.60;;;;;11.60;101603.00;;;;10028596;29;20244;-77
2023/02/18 14:06:22;;;;;;;5.87;2.43;;;;;11.60;101607.00;;;;10028907;29;20208;-79
2023/02/18 14:11:33;;;;;;;9.83;2.60;;;;;11.60;101599.00;;;;10043522;29;20686;-78
2023/02/18 14:17:13;;;;;;;8.70;2.63;;;;;11.50;101593.00;;;;10047048;29;20193;-78
2023/02/18 14:22:30;;;;;;;8.67;2.80;;;;;11.40;101607.00;;;;10012298;29;20276;-78
2023/02/18 14:27:33;;;;;;;9.63;3.07;;;;;11.40;101612.00;;;;9999682;29;20224;-78
2023/02/18 14:32:39;;;;;;;4.47;2.57;;;;;11.40;101600.00;;;;10042551;29;20201;-79
2023/02/18 14:37:59;;;;;;;4.47;2.40;;;;;11.40;101603.00;;;;10027347;29;20617;-78
2023/02/18 14:43:25;;;;;;;8.27;2.47;;;;;11.50;101595.00;;;;10042391;29;20285;-77
2023/02/18 14:49:15;;;;;;;6.77;2.93;;;;;11.70;101590.00;;;;10041652;29;20261;-76
2023/02/18 14:54:19;;;;;;;5.17;2.43;;;;;11.90;101584.00;;;;10017093;29;20240;-77
2023/02/18 14:59:25;;;;;;;5.90;2.43;;;;;12.10;101585.00;;;;10009348;29;20303;-77
2023/02/18 15:04:28;;;;;;;9.93;2.60;;;;;12.10;101587.00;;;;10013433;29;20316;-78
2023/02/18 15:09:30;;;;;;;5.07;2.20;;;;;12.00;101583.00;;;;10019566;29;20850;-78
2023/02/18 15:14:38;;;;;;;7.40;3.00;;;;;11.90;101585.00;;;;10039230;29;20205;-78
2023/02/18 15:19:43;;;;;;;7.63;3.20;;;;;11.70;101592.00;;;;9998580;29;20554;-77
2023/02/18 15:24:46;;;;;;;7.73;2.73;;;;;11.60;101575.00;;;;10005632;29;20597;-78
2023/02/18 15:29:50;;;;;;;10.03;3.30;;;;;11.60;101582.00;;;;10020457;29;20675;-79
2023/02/18 15:35:00;;;;;;;8.77;2.73;;;;;11.60;101584.00;;;;9997549;29;20197;-80
2023/02/18 15:40:03;;;;;;;6.40;3.17;;;;;11.50;101573.00;;;;10015690;29;20217;-78
2023/02/18 15:45:17;;;;;;;11.57;3.73;;;;;11.40;101578.00;;;;10023543;29;20248;-79
2023/02/18 15:50:36;;;;;;;5.83;2.70;;;;;11.30;101570.00;;;;10029816;29;20216;-78
2023/02/18 15:55:41;;;;;;;7.07;3.43;;;;;11.30;101569.00;;;;10006141;29;20197;-79
2023/02/18 16:00:53;;;;;;;7.13;3.10;;;;;11.30;101578.00;;;;10010427;29;20224;-78
2023/02/18 16:06:21;;;;;;;9.67;2.90;;;;;11.20;101583.00;;;;10019742;29;20201;-78
2023/02/18 16:11:25;;;;;;;7.83;3.50;;;;;11.10;101574.00;;;;10027136;29;20198;-79
2023/02/18 16:16:32;;;;;;;7.80;3.73;;;;;11.20;101567.00;;;;9984990;29;20209;-78
2023/02/18 16:21:44;;;;;;;6.97;3.60;;;;;11.20;101573.00;;;;10000140;29;20678;-78
2023/02/18 16:26:46;;;;;;;8.87;4.13;;;;;11.10;101578.00;;;;9998726;29;20332;-77
2023/02/18 16:31:48;;;;;;;9.23;3.73;;;;;11.10;101561.00;;;;10002507;29;20201;-78
2023/02/18 16:42:12;;;;;;;14.20;4.53;;;;;11.00;101571.00;;;;10006589;29;20231;-77
2023/02/18 16:47:16;;;;;;;8.10;4.40;;;;;11.00;101568.00;;;;10055060;29;20205;-77
2023/02/18 16:52:18;;;;;;;10.57;3.40;;;;;11.00;101568.00;;;;10075353;29;20225;-78
2023/02/18 16:57:20;;;;;;;10.10;3.50;;;;;10.90;101568.00;;;;10039195;29;20293;-78
2023/02/18 17:02:23;;;;;;;9.90;3.50;;;;;10.90;101567.00;;;;10001854;29;20209;-77
2023/02/18 17:07:25;;;;;;;9.33;4.07;;;;;10.80;101570.00;;;;9999910;29;20682;-78
2023/02/18 17:12:27;;;;;;;5.27;3.17;;;;;10.80;101563.00;;;;10030404;29;20212;-78
2023/02/18 17:17:29;;;;;;;7.33;4.43;;;;;10.80;101561.00;;;;10002401;29;20208;-78
2023/02/18 17:22:31;;;;;;;8.20;4.13;;;;;10.80;101559.00;;;;9954015;29;20212;-79
2023/02/18 17:27:33;;;;;;;8.97;4.10;;;;;10.80;101561.00;;;;10003724;29;20228;-78
2023/02/18 17:32:35;;;;;;;10.13;5.00;;;;;10.80;101561.00;;;;10022072;29;20236;-77
2023/02/18 17:37:37;;;;;;;6.67;3.80;;;;;10.80;101549.00;;;;10007873;29;20237;-76
2023/02/18 17:42:39;;;;;;;8.33;4.00;;;;;10.80;101556.00;;;;10014559;29;20228;-78
2023/02/18 17:47:41;;;;;;;5.23;4.20;;;;;10.80;101549.00;;;;10023107;29;20205;-78
2023/02/18 17:52:43;;;;;;;8.27;4.93;;;;;10.70;101556.00;;;;10013013;29;20202;-77
2023/02/18 17:57:45;;;;;;;10.97;4.83;;;;;10.70;101555.00;;;;10013722;29;20766;-78
2023/02/18 18:02:47;;;;;;;8.80;4.77;;;;;10.70;101552.00;;;;10056498;29;20207;-78
2023/02/18 18:07:50;;;;;;;8.40;5.50;;;;;10.70;101558.00;;;;10028751;29;20205;-78
2023/02/18 18:12:53;;;;;;;9.27;4.80;;;;;10.70;101554.00;;;;10046329;29;20205;-78
2023/02/18 18:17:57;;;;;;;12.27;5.43;;;;;10.70;101565.00;;;;10026742;29;20228;-78
2023/02/18 18:23:01;;;;;;;8.67;4.73;;;;;10.70;101557.00;;;;10020084;29;20209;-78
2023/02/18 18:28:05;;;;;;;8.57;4.97;;;;;10.60;101570.00;;;;10002734;29;20212;-78
2023/02/18 18:33:25;;;;;;;8.97;6.03;;;;;10.50;101568.00;;;;10017029;29;20193;-78
2023/02/18 18:38:28;;;;;;;7.40;4.83;;;;;10.50;101568.00;;;;9993055;29;20221;-78
2023/02/18 18:43:31;;;;;;;7.87;5.40;;;;;10.60;101569.00;;;;10036234;29;20209;-78
2023/02/18 18:48:34;;;;;;;6.20;5.17;;;;;10.60;101567.00;;;;10017063;29;20233;-78
2023/02/18 18:53:36;;;;;;;7.00;5.87;;;;;10.60;101559.00;;;;9984765;29;21683;-78
2023/02/18 18:58:38;;;;;;;10.27;6.43;;;;;10.60;101549.00;;;;10012482;29;20197;-78
2023/02/18 19:03:41;;;;;;;8.00;5.53;;;;;10.60;101558.00;;;;10018917;29;20236;-77
2023/02/18 19:08:44;;;;;;;7.50;5.87;;;;;10.60;101559.00;;;;10019940;29;20236;-78
2023/02/18 19:13:46;;;;;;;9.20;6.07;;;;;10.60;101549.00;;;;9996375;29;20618;-78
2023/02/18 19:18:48;;;;;;;6.93;5.20;;;;;10.60;101554.00;;;;9999354;29;20246;-78
2023/02/18 19:23:50;;;;;;;5.93;4.87;;;;;10.60;101563.00;;;;9995801;29;20243;-78
2023/02/18 19:28:52;;;;;;;6.90;5.50;;;;;10.60;101552.00;;;;10014888;29;20558;-78
2023/02/18 19:33:54;;;;;;;6.83;4.83;;;;;10.60;101546.00;;;;10002082;29;20231;-78
2023/02/18 19:38:56;;;;;;;5.70;5.03;;;;;10.40;101534.00;;;;10010373;29;20315;-78
2023/02/18 19:43:58;;;;;;;6.73;6.03;;;;;10.30;101523.00;;;;10020499;29;20217;-78
2023/02/18 19:49:00;;;;;;;5.23;4.73;;;;;10.20;101513.00;;;;10042865;29;20284;-78
2023/02/18 19:54:02;;;;;;;5.63;5.07;;;;;10.10;101516.00;;;;10014835;29;20211;-78
2023/02/18 19:59:05;;;;;;;6.67;5.33;;;;;10.10;101509.00;;;;10000690;29;20212;-78
2023/02/18 20:04:07;;;;;;;5.37;4.83;;;;;10.10;101504.00;;;;10003579;29;20223;-78
2023/02/18 20:09:09;;;;;;;6.63;5.20;;;;;10.10;101504.00;;;;10013951;29;20290;-78
2023/02/18 20:14:11;;;;;;;9.70;6.50;;;;;10.10;101506.00;;;;10003065;29;20283;-77
2023/02/18 20:19:13;;;;;;;7.73;5.67;;;;;10.20;101501.00;;;;9975269;29;20193;-78
2023/02/18 20:24:15;;;;;;;11.03;6.80;;;;;10.20;101494.00;;;;10006707;29;20282;-79
2023/02/18 20:29:20;;;;;;;7.73;5.87;;;;;10.30;101497.00;;;;10005865;29;20192;-77
2023/02/18 20:34:22;;;;;;;6.30;5.40;;;;;10.30;101476.00;;;;10012633;29;20209;-79
2023/02/18 20:39:24;;;;;;;8.10;5.47;;;;;10.30;101478.00;;;;9982308;29;20216;-78
2023/02/18 20:44:27;;;;;;;8.60;5.67;;;;;10.30;101482.00;;;;10014029;29;20218;-77
2023/02/18 20:49:29;;;;;;;5.20;3.77;;;;;10.40;101487.00;;;;10019418;29;20229;-79
2023/02/18 20:54:32;;;;;;;5.63;4.23;;;;;10.40;101482.00;;;;10004954;29;20201;-79
2023/02/18 20:59:34;;;;;;;5.87;3.77;;;;;10.40;101479.00;;;;10001763;29;20220;-78
2023/02/18 21:04:36;;;;;;;7.57;4.70;;;;;10.40;101472.00;;;;10020439;29;20588;-78
2023/02/18 21:09:38;;;;;;;5.00;4.07;;;;;10.40;101479.00;;;;9985790;29;20681;-78
2023/02/18 21:14:40;;;;;;;5.60;4.03;;;;;10.40;101483.00;;;;9999761;29;20631;-78
2023/02/18 21:19:43;;;;;;;4.00;3.53;;;;;10.40;101477.00;;;;10005567;29;20201;-78
2023/02/18 21:24:49;;;;;;;4.53;3.33;;;;;10.50;101477.00;;;;9974607;29;20228;-77
2023/02/18 21:29:51;;;;;;;4.27;3.63;;;;;10.50;101481.00;;;;9999781;29;20239;-78
2023/02/18 21:34:53;;;;;;;4.10;3.37;;;;;10.50;101487.00;;;;10028640;29;20193;-78
2023/02/18 21:39:57;;;;;;;5.17;4.07;;;;;10.50;101481.00;;;;10016096;29;20210;-78
2023/02/18 21:45:01;;;;;;;3.60;3.30;;;;;10.50;101471.00;;;;9981700;29;20232;-78
2023/02/18 21:50:04;;;;;;;4.27;3.27;;;;;10.50;101453.00;;;;10007126;29;20201;-78
2023/02/18 21:55:08;;;;;;;5.23;3.60;;;;;10.50;101454.00;;;;10016654;29;20198;-78
2023/02/18 22:00:10;;;;;;;5.67;4.00;;;;;10.60;101455.00;;;;10000592;29;20243;-79
2023/02/18 22:05:24;;;;;;;4.53;3.83;;;;;10.60;101471.00;;;;10011136;29;20229;-78
2023/02/18 22:10:26;;;;;;;4.07;3.50;;;;;10.60;101460.00;;;;9985626;29;20257;-78
2023/02/18 22:15:28;;;;;;;6.37;3.87;;;;;10.60;101474.00;;;;10026783;29;20197;-78
2023/02/18 22:20:30;;;;;;;4.87;3.77;;;;;10.60;101475.00;;;;10012392;29;20205;-78
2023/02/18 22:25:34;;;;;;;5.17;3.90;;;;;10.60;101480.00;;;;10012203;29;20260;-78
2023/02/18 22:30:38;;;;;;;7.13;4.47;;;;;10.60;101475.00;;;;9992659;29;20288;-78
2023/02/18 22:35:40;;;;;;;5.80;3.60;;;;;10.60;101487.00;;;;10030717;29;20201;-79
2023/02/18 22:40:42;;;;;;;5.47;3.50;;;;;10.50;101487.00;;;;10012360;29;20319;-77
2023/02/18 22:45:44;;;;;;;5.17;3.70;;;;;10.50;101492.00;;;;10008290;29;20629;-78
2023/02/18 22:50:46;;;;;;;8.73;3.87;;;;;10.40;101491.00;;;;9994267;29;20204;-78
2023/02/18 22:55:48;;;;;;;6.63;3.93;;;;;10.30;101495.00;;;;10012719;29;20214;-78
2023/02/18 23:00:50;;;;;;;6.47;4.40;;;;;10.20;101485.00;;;;10006877;29;20205;-78
2023/02/18 23:05:54;;;;;;;8.03;4.10;;;;;10.10;101485.00;;;;9991661;29;20316;-77
2023/02/18 23:11:05;;;;;;;6.17;4.23;;;;;10.00;101491.00;;;;10015020;29;20205;-79
2023/02/18 23:22:32;;;;;;;8.47;4.80;;;;;10.00;101473.00;;;;10019806;29;20247;-77
2023/02/18 23:27:35;;;;;;;6.20;4.83;;;;;10.00;101477.00;;;;10034119;29;20221;-77
2023/02/18 23:32:37;;;;;;;6.20;4.47;;;;;9.90;101483.00;;;;10060324;29;20197;-76
2023/02/18 23:43:00;;;;;;;10.07;5.40;;;;;9.90;101454.00;;;;9995887;29;20212;-76
2023/02/18 23:48:02;;;;;;;6.83;4.93;;;;;9.90;101463.00;;;;10009139;29;20257;-77
2023/02/18 23:53:04;;;;;;;9.50;4.87;;;;;9.80;101460.00;;;;10023805;29;20197;-77
2023/02/18 23:58:06;;;;;;;9.03;3.87;;;;;9.80;101455.00;;;;10022821;29;20196;-77
